createdAt,value
2023-08-17T00:01:13.104Z,12.20
2023-08-17T00:03:39.679Z,12.40
2023-08-17T00:06:06.566Z,12.00
2023-08-17T00:08:33.047Z,12.00
2023-08-17T00:10:59.498Z,12.40
2023-08-17T00:13:25.907Z,12.30
2023-08-17T00:15:52.371Z,11.80
2023-08-17T00:18:18.872Z,12.20
2023-08-17T00:20:45.551Z,12.00
2023-08-17T00:23:12.049Z,12.90
2023-08-17T00:25:38.576Z,12.20
2023-08-17T00:28:05.661Z,12.60
2023-08-17T00:30:32.162Z,12.00
2023-08-17T00:32:58.598Z,12.40
2023-08-17T00:35:25.008Z,12.50
2023-08-17T00:37:51.426Z,13.10
2023-08-17T00:40:17.853Z,12.70
2023-08-17T00:42:44.296Z,12.50
2023-08-17T00:45:11.098Z,12.40
2023-08-17T00:47:38.272Z,11.90
2023-08-17T00:50:05.608Z,11.40
2023-08-17T00:52:34.306Z,11.70
2023-08-17T00:55:03.199Z,11.80
2023-08-17T00:57:29.656Z,12.00
2023-08-17T01:00:04.880Z,12.10
2023-08-17T01:02:28.103Z,11.70
2023-08-17T01:04:54.722Z,13.00
2023-08-17T01:07:22.051Z,12.60
2023-08-17T01:09:48.654Z,12.50
2023-08-17T01:12:25.628Z,12.10
2023-08-17T01:15:03.239Z,12.30
2023-08-17T01:17:45.143Z,12.40
2023-08-17T01:20:15.057Z,11.70
2023-08-17T01:22:43.826Z,11.50
2023-08-17T01:25:10.582Z,11.40
2023-08-17T01:27:46.056Z,11.10
2023-08-17T01:30:17.584Z,10.60
2023-08-17T01:33:03.350Z,11.10
2023-08-17T01:35:46.940Z,11.50
2023-08-17T01:38:21.004Z,11.00
2023-08-17T01:40:50.058Z,10.70
2023-08-17T01:43:18.057Z,10.90
2023-08-17T01:45:45.215Z,11.40
2023-08-17T01:48:11.921Z,10.80
2023-08-17T01:50:38.444Z,11.40
2023-08-17T01:53:05.078Z,11.70
2023-08-17T01:55:31.548Z,11.00
2023-08-17T01:57:57.980Z,10.80
2023-08-17T02:00:24.405Z,11.50
2023-08-17T02:02:50.833Z,10.90
2023-08-17T02:05:17.266Z,10.60
2023-08-17T02:07:43.723Z,11.40
2023-08-17T02:10:10.686Z,10.80
2023-08-17T02:12:37.093Z,11.10
2023-08-17T02:15:03.757Z,11.60
2023-08-17T02:17:30.409Z,11.10
2023-08-17T02:19:56.821Z,11.30
2023-08-17T02:22:23.261Z,11.40
2023-08-17T02:24:49.654Z,11.90
2023-08-17T02:27:16.112Z,12.30
2023-08-17T02:29:42.572Z,11.50
2023-08-17T02:32:09.018Z,12.30
2023-08-17T02:34:35.431Z,11.50
2023-08-17T02:39:28.129Z,11.40
2023-08-17T02:41:54.545Z,11.90
2023-08-17T02:44:22.089Z,11.20
2023-08-17T02:46:48.528Z,11.50
2023-08-17T02:49:14.959Z,11.70
2023-08-17T02:51:41.448Z,11.40
2023-08-17T02:54:08.316Z,10.70
2023-08-17T02:56:34.790Z,10.70
2023-08-17T02:59:01.215Z,11.10
2023-08-17T03:01:27.744Z,10.80
2023-08-17T03:03:54.182Z,11.60
2023-08-17T03:06:20.591Z,11.70
2023-08-17T03:08:47.021Z,10.80
2023-08-17T03:11:13.519Z,10.80
2023-08-17T03:13:40.309Z,10.90
2023-08-17T03:16:06.796Z,11.80
2023-08-17T03:18:33.244Z,11.50
2023-08-17T03:20:59.682Z,13.00
2023-08-17T03:23:26.155Z,11.90
2023-08-17T03:25:55.919Z,12.00
2023-08-17T03:28:22.522Z,11.50
2023-08-17T03:30:49.081Z,11.30
2023-08-17T03:33:15.545Z,11.40
2023-08-17T03:35:41.994Z,10.40
2023-08-17T03:38:08.395Z,11.40
2023-08-17T03:40:34.807Z,11.50
2023-08-17T03:43:01.238Z,11.10
2023-08-17T03:45:27.620Z,11.10
2023-08-17T03:47:54.506Z,12.50
2023-08-17T03:50:20.928Z,11.70
2023-08-17T03:52:47.323Z,11.00
2023-08-17T03:55:13.806Z,11.50
2023-08-17T03:57:40.296Z,12.10
2023-08-17T04:00:08.226Z,11.80
2023-08-17T04:02:34.689Z,11.90
2023-08-17T04:05:01.224Z,11.40
2023-08-17T04:07:28.087Z,11.50
2023-08-17T04:09:54.709Z,10.30
2023-08-17T04:12:21.161Z,11.00
2023-08-17T04:14:47.757Z,10.60
2023-08-17T04:17:14.273Z,11.30
2023-08-17T04:19:40.802Z,10.80
2023-08-17T04:22:07.437Z,10.90
2023-08-17T04:24:33.962Z,10.60
2023-08-17T04:27:00.945Z,10.20
2023-08-17T04:29:27.364Z,10.20
2023-08-17T04:31:54.321Z,9.90
2023-08-17T04:34:21.165Z,10.20
2023-08-17T04:36:47.690Z,10.60
2023-08-17T04:39:14.280Z,10.40
2023-08-17T04:41:40.810Z,10.60
2023-08-17T04:44:07.305Z,10.40
2023-08-17T04:46:34.023Z,9.70
2023-08-17T04:49:00.493Z,10.50
2023-08-17T04:51:26.960Z,10.50
2023-08-17T04:53:54.073Z,9.70
2023-08-17T04:56:21.776Z,9.80
2023-08-17T04:58:48.258Z,9.70
2023-08-17T05:01:15.158Z,10.20
2023-08-17T05:03:41.829Z,8.90
2023-08-17T05:06:08.501Z,8.90
2023-08-17T05:08:34.918Z,9.20
2023-08-17T05:11:01.322Z,9.00
2023-08-17T05:13:27.876Z,8.50
2023-08-17T05:15:54.809Z,8.70
2023-08-17T05:18:22.404Z,8.90
2023-08-17T05:20:49.027Z,8.40
2023-08-17T05:23:15.448Z,8.50
2023-08-17T05:25:41.840Z,8.30
2023-08-17T05:28:08.392Z,8.30
2023-08-17T05:30:34.811Z,8.60
2023-08-17T05:33:01.283Z,8.40
2023-08-17T05:35:27.736Z,8.20
2023-08-17T05:37:54.170Z,8.80
2023-08-17T05:40:20.615Z,8.60
2023-08-17T05:42:47.079Z,8.80
2023-08-17T05:45:13.686Z,8.80
2023-08-17T05:47:40.149Z,7.90
2023-08-17T05:50:07.399Z,8.60
2023-08-17T05:52:33.936Z,8.50
2023-08-17T05:55:00.514Z,9.40
2023-08-17T05:57:27.280Z,8.40
2023-08-17T05:59:54.110Z,8.50
2023-08-17T06:02:20.542Z,8.80
2023-08-17T06:04:48.930Z,9.00
2023-08-17T06:07:15.455Z,9.10
2023-08-17T06:09:42.108Z,9.40
2023-08-17T06:12:08.607Z,9.40
2023-08-17T06:14:35.320Z,9.40
2023-08-17T06:17:02.001Z,9.20
2023-08-17T06:19:28.417Z,9.10
2023-08-17T06:21:54.925Z,8.90
2023-08-17T06:24:21.662Z,9.40
2023-08-17T06:26:48.134Z,9.30
2023-08-17T06:29:14.531Z,9.90
2023-08-17T06:31:40.976Z,9.40
2023-08-17T06:34:07.454Z,9.80
2023-08-17T06:36:34.219Z,9.80
2023-08-17T06:39:01.333Z,10.40
2023-08-17T06:41:27.923Z,10.40
2023-08-17T06:43:54.330Z,9.90
2023-08-17T06:46:20.884Z,10.10
2023-08-17T06:48:47.367Z,10.30
2023-08-17T06:51:13.776Z,10.50
2023-08-17T06:53:40.425Z,9.90
2023-08-17T06:56:07.113Z,9.70
2023-08-17T06:58:33.546Z,9.50
2023-08-17T07:00:59.967Z,10.00
2023-08-17T07:03:26.431Z,10.30
2023-08-17T07:05:52.966Z,10.50
2023-08-17T07:08:19.419Z,10.60
2023-08-17T07:10:46.258Z,10.40
2023-08-17T07:13:12.745Z,10.50
2023-08-17T07:15:39.187Z,10.30
2023-08-17T07:18:05.725Z,11.30
2023-08-17T07:20:32.161Z,11.20
2023-08-17T07:22:58.982Z,10.50
2023-08-17T07:25:26.249Z,9.80
2023-08-17T07:27:52.671Z,10.30
2023-08-17T07:30:19.133Z,10.90
2023-08-17T07:32:45.570Z,10.70
2023-08-17T07:35:12.293Z,10.10
2023-08-17T07:37:38.804Z,10.40
2023-08-17T07:40:06.114Z,10.10
2023-08-17T07:42:32.778Z,10.00
2023-08-17T07:44:59.300Z,10.70
2023-08-17T07:47:26.238Z,10.90
2023-08-17T07:49:53.353Z,11.00
2023-08-17T07:52:19.874Z,10.60
2023-08-17T07:54:47.098Z,10.20
2023-08-17T07:57:13.558Z,10.50
2023-08-17T07:59:39.971Z,10.70
2023-08-17T08:02:07.015Z,10.70
2023-08-17T08:04:33.424Z,10.80
2023-08-17T08:07:00.100Z,11.10
2023-08-17T08:09:26.487Z,10.80
2023-08-17T08:11:52.923Z,11.00
2023-08-17T08:14:19.397Z,11.10
2023-08-17T08:16:45.861Z,11.10
2023-08-17T08:19:12.380Z,11.30
2023-08-17T08:21:39.180Z,10.90
2023-08-17T08:24:10.393Z,11.40
2023-08-17T08:26:40.781Z,10.70
2023-08-17T08:29:07.213Z,11.20
2023-08-17T08:31:33.671Z,11.70
2023-08-17T08:34:00.759Z,11.10
2023-08-17T08:36:27.174Z,11.00
2023-08-17T08:38:53.828Z,11.70
2023-08-17T08:41:20.802Z,12.00
2023-08-17T08:43:47.980Z,11.80
2023-08-17T08:46:19.004Z,12.40
2023-08-17T08:48:51.681Z,12.70
2023-08-17T08:51:29.076Z,11.90
2023-08-17T08:54:04.560Z,12.00
2023-08-17T08:56:39.095Z,12.60
2023-08-17T08:59:05.848Z,12.20
2023-08-17T09:01:33.602Z,12.50
2023-08-17T09:04:01.901Z,13.00
2023-08-17T09:06:30.304Z,12.40
2023-08-17T09:08:59.106Z,13.00
2023-08-17T09:11:25.598Z,14.90
2023-08-17T09:13:54.433Z,14.50
2023-08-17T09:16:23.005Z,13.60
2023-08-17T09:18:55.123Z,13.50
2023-08-17T09:21:24.472Z,13.40
2023-08-17T09:26:25.702Z,12.90
2023-08-17T09:28:55.262Z,14.20
2023-08-17T09:31:25.368Z,14.10
2023-08-17T09:33:52.726Z,13.80
2023-08-17T09:36:23.836Z,15.00
2023-08-17T09:38:52.472Z,15.10
2023-08-17T09:41:20.039Z,14.50
2023-08-17T09:43:48.146Z,14.80
2023-08-17T09:46:16.158Z,14.40
2023-08-17T09:48:46.654Z,14.30
2023-08-17T09:51:17.441Z,14.90
2023-08-17T09:53:44.055Z,14.10
2023-08-17T09:58:44.194Z,14.70
2023-08-17T10:01:12.106Z,14.70
2023-08-17T10:03:47.250Z,15.50
2023-08-17T10:06:26.748Z,14.10
2023-08-17T10:08:55.666Z,16.30
2023-08-17T10:11:24.315Z,15.30
2023-08-17T10:16:47.075Z,15.60
2023-08-17T10:19:44.506Z,15.40
2023-08-17T10:22:20.978Z,14.60
2023-08-17T10:24:48.424Z,16.10
2023-08-17T10:27:14.942Z,15.50
2023-08-17T10:29:44.340Z,15.80
2023-08-17T10:32:16.704Z,15.50
2023-08-17T10:34:44.620Z,14.60
2023-08-17T10:37:12.851Z,15.10
2023-08-17T10:39:47.394Z,14.50
2023-08-17T10:42:20.783Z,15.00
2023-08-17T10:44:50.422Z,14.90
2023-08-17T10:47:26.633Z,14.20
2023-08-17T10:50:02.700Z,14.40
2023-08-17T10:52:36.426Z,15.30
2023-08-17T10:55:06.276Z,14.90
2023-08-17T10:57:38.349Z,14.80
2023-08-17T11:00:30.783Z,14.00
2023-08-17T11:03:04.957Z,15.20
2023-08-17T11:05:54.994Z,15.00
2023-08-17T11:08:51.439Z,15.40
2023-08-17T11:11:22.554Z,14.80
2023-08-17T11:13:50.022Z,14.30
2023-08-17T11:16:20.611Z,14.50
2023-08-17T11:18:54.471Z,14.90
2023-08-17T11:21:21.495Z,14.40
2023-08-17T11:23:49.595Z,15.20
2023-08-17T11:26:20.421Z,16.30
2023-08-17T11:28:48.516Z,15.00
2023-08-17T11:31:17.008Z,15.70
2023-08-17T11:33:45.861Z,15.50
2023-08-17T11:36:12.832Z,15.30
2023-08-17T11:38:44.776Z,15.90
2023-08-17T11:43:43.634Z,15.70
2023-08-17T11:46:10.186Z,14.90
2023-08-17T11:48:38.048Z,15.60
2023-08-17T11:51:05.367Z,14.00
2023-08-17T11:53:42.402Z,14.20
2023-08-17T11:56:11.303Z,14.00
2023-08-17T11:58:46.788Z,14.70
2023-08-17T12:01:19.704Z,14.50
2023-08-17T12:03:46.986Z,14.10
2023-08-17T12:06:15.025Z,14.70
2023-08-17T12:08:49.608Z,15.50
2023-08-17T12:11:25.027Z,14.50
2023-08-17T12:13:53.278Z,14.60
2023-08-17T12:16:23.920Z,13.80
2023-08-17T12:18:54.308Z,13.60
2023-08-17T12:21:29.478Z,14.20
2023-08-17T12:23:56.180Z,13.30
2023-08-17T12:26:23.155Z,12.60
2023-08-17T12:28:50.947Z,12.80
2023-08-17T12:31:23.700Z,12.60
2023-08-17T12:33:53.463Z,13.60
2023-08-17T12:36:21.541Z,12.90
2023-08-17T12:38:49.250Z,13.90
2023-08-17T12:41:16.048Z,13.40
2023-08-17T12:43:42.486Z,13.90
2023-08-17T12:46:08.925Z,13.20
2023-08-17T12:48:36.864Z,13.70
2023-08-17T12:53:29.518Z,13.20
2023-08-17T12:55:56.587Z,13.00
2023-08-17T12:58:23.369Z,14.00
2023-08-17T13:00:54.490Z,13.10
2023-08-17T13:03:21.668Z,13.00
2023-08-17T13:05:48.230Z,12.40
2023-08-17T13:08:14.773Z,12.40
2023-08-17T13:10:41.346Z,12.40
2023-08-17T13:13:07.874Z,12.80
2023-08-17T13:15:34.775Z,13.00
2023-08-17T13:18:02.268Z,13.00
2023-08-17T13:20:28.828Z,12.90
2023-08-17T13:22:55.313Z,11.50
2023-08-17T13:25:21.840Z,11.60
2023-08-17T13:27:48.281Z,12.00
2023-08-17T13:30:14.849Z,10.30
2023-08-17T13:32:44.028Z,11.10
2023-08-17T13:35:11.518Z,10.70
2023-08-17T13:37:38.927Z,10.90
2023-08-17T13:40:06.267Z,11.00
2023-08-17T13:42:36.472Z,9.40
2023-08-17T13:45:05.424Z,9.00
2023-08-17T13:47:31.880Z,10.20
2023-08-17T13:49:59.432Z,8.80
2023-08-17T13:52:26.511Z,9.50
2023-08-17T13:54:57.415Z,9.10
2023-08-17T13:57:23.912Z,9.10
2023-08-17T13:59:50.425Z,8.70
2023-08-17T14:02:16.840Z,8.20
2023-08-17T14:04:43.294Z,8.60
2023-08-17T14:07:09.708Z,7.80
2023-08-17T14:09:36.166Z,8.20
2023-08-17T14:12:03.279Z,8.20
2023-08-17T14:14:29.776Z,8.10
2023-08-17T14:16:56.505Z,7.80
2023-08-17T14:19:23.075Z,6.80
2023-08-17T14:21:49.728Z,7.90
2023-08-17T14:24:36.681Z,8.20
2023-08-17T14:27:03.263Z,7.50
2023-08-17T14:29:29.708Z,8.30
2023-08-17T14:31:56.506Z,8.50
2023-08-17T14:34:23.955Z,7.90
2023-08-17T14:36:50.447Z,8.10
2023-08-17T14:39:17.045Z,7.80
2023-08-17T14:41:46.563Z,8.30
2023-08-17T14:44:13.230Z,7.90
2023-08-17T14:46:43.581Z,8.80
2023-08-17T14:49:10.244Z,12.80
2023-08-17T14:51:40.064Z,8.80
2023-08-17T14:54:08.961Z,8.60
2023-08-17T14:56:35.565Z,8.10
2023-08-17T14:59:03.003Z,8.00
2023-08-17T15:01:31.187Z,8.50
2023-08-17T15:03:57.687Z,8.10
2023-08-17T15:06:34.234Z,8.10
2023-08-17T15:11:33.343Z,8.80
2023-08-17T15:13:59.962Z,8.80
2023-08-17T15:16:28.306Z,8.20
2023-08-17T15:18:55.633Z,8.50
2023-08-17T15:21:22.829Z,8.20
2023-08-17T15:23:49.439Z,8.50
2023-08-17T15:26:16.004Z,8.20
2023-08-17T15:28:42.871Z,8.40
2023-08-17T15:31:14.287Z,7.50
2023-08-17T15:33:41.728Z,7.60
2023-08-17T15:36:08.570Z,8.20
2023-08-17T15:38:35.169Z,8.30
2023-08-17T15:43:55.577Z,7.60
2023-08-17T15:46:22.047Z,8.20
2023-08-17T15:49:06.743Z,8.40
2023-08-17T15:51:33.150Z,8.20
2023-08-17T15:53:59.528Z,9.60
2023-08-17T15:56:25.976Z,9.10
2023-08-17T15:58:52.561Z,8.40
2023-08-17T16:01:43.832Z,8.50
2023-08-17T16:04:10.269Z,7.80
2023-08-17T16:06:36.830Z,8.50
2023-08-17T16:11:37.984Z,8.10
2023-08-17T16:14:06.344Z,8.30
2023-08-17T16:16:34.014Z,7.80
2023-08-17T16:19:04.468Z,7.50
2023-08-17T16:21:55.661Z,7.40
2023-08-17T16:24:26.533Z,7.50
2023-08-17T16:26:53.683Z,7.30
2023-08-17T16:29:44.750Z,7.20
2023-08-17T16:32:11.280Z,7.30
2023-08-17T16:34:37.769Z,7.00
2023-08-17T16:39:56.027Z,6.30
2023-08-17T16:42:22.490Z,6.20
2023-08-17T16:44:48.883Z,6.30
2023-08-17T16:47:19.784Z,6.20
2023-08-17T16:49:56.566Z,6.20
2023-08-17T16:52:23.877Z,6.00
2023-08-17T16:54:50.291Z,6.10
2023-08-17T16:57:16.773Z,5.90
2023-08-17T17:02:30.329Z,5.70
2023-08-17T17:04:56.788Z,6.70
2023-08-17T17:07:23.256Z,7.20
2023-08-17T17:09:50.234Z,7.30
2023-08-17T17:12:42.186Z,7.00
2023-08-17T17:15:09.325Z,7.40
2023-08-17T17:17:36.101Z,6.80
2023-08-17T17:23:03.832Z,7.50
2023-08-17T17:25:30.321Z,7.10
2023-08-17T17:28:38.004Z,7.10
2023-08-17T17:31:07.406Z,7.30
2023-08-17T17:33:58.844Z,7.70
2023-08-17T17:36:25.504Z,10.30
2023-08-17T17:38:52.016Z,12.40
2023-08-17T17:41:18.500Z,10.70
2023-08-17T17:43:44.980Z,10.40
2023-08-17T17:46:11.438Z,10.50
2023-08-17T17:48:37.930Z,9.20
2023-08-17T17:53:31.585Z,8.50
2023-08-17T17:55:58.179Z,8.10
2023-08-17T17:58:24.727Z,6.70
2023-08-17T18:00:51.305Z,6.40
2023-08-17T18:03:17.921Z,6.00
2023-08-17T18:05:46.561Z,5.90
2023-08-17T18:08:13.284Z,5.60
2023-08-17T18:10:44.499Z,5.90
2023-08-17T18:13:11.070Z,6.00
2023-08-17T18:15:39.436Z,5.80
2023-08-17T18:18:07.042Z,6.00
2023-08-17T18:20:34.164Z,6.00
2023-08-17T18:23:00.667Z,5.30
2023-08-17T18:25:27.454Z,5.20
2023-08-17T18:27:53.995Z,5.50
2023-08-17T18:30:20.437Z,5.90
2023-08-17T18:32:47.005Z,5.80
2023-08-17T18:35:13.567Z,5.40
2023-08-17T18:37:41.765Z,5.80
2023-08-17T18:40:10.657Z,5.60
2023-08-17T18:42:37.157Z,6.00
2023-08-17T18:45:04.041Z,5.70
2023-08-17T18:47:30.679Z,6.50
2023-08-17T18:49:57.167Z,6.20
2023-08-17T18:52:25.121Z,6.60
2023-08-17T18:55:03.965Z,6.90
2023-08-17T18:57:33.780Z,8.90
2023-08-17T19:00:02.117Z,7.20
2023-08-17T19:02:28.814Z,6.80
2023-08-17T19:04:55.330Z,7.40
2023-08-17T19:07:23.462Z,7.80
2023-08-17T19:09:50.199Z,7.00
2023-08-17T19:12:18.501Z,8.20
2023-08-17T19:14:46.556Z,7.70
2023-08-17T19:17:13.568Z,7.50
2023-08-17T19:19:41.718Z,7.50
2023-08-17T19:22:08.644Z,7.40
2023-08-17T19:24:35.352Z,7.70
2023-08-17T19:27:01.956Z,7.90
2023-08-17T19:29:29.474Z,9.50
2023-08-17T19:31:56.129Z,8.50
2023-08-17T19:34:22.688Z,8.40
2023-08-17T19:36:49.227Z,8.40
2023-08-17T19:39:15.717Z,8.40
2023-08-17T19:41:44.437Z,8.70
2023-08-17T19:44:11.026Z,8.00
2023-08-17T19:46:37.717Z,8.80
2023-08-17T19:51:31.251Z,8.80
2023-08-17T19:53:57.773Z,8.60
2023-08-17T19:56:24.356Z,8.20
2023-08-17T19:58:50.759Z,8.20
2023-08-17T20:01:18.497Z,8.90
2023-08-17T20:03:49.516Z,8.50
2023-08-17T20:06:16.351Z,8.50
2023-08-17T20:08:43.764Z,8.90
2023-08-17T20:11:12.619Z,8.80
2023-08-17T20:13:39.261Z,8.40
2023-08-17T20:16:06.625Z,9.00
2023-08-17T20:18:33.251Z,9.70
2023-08-17T20:21:03.165Z,8.80
2023-08-17T20:23:29.622Z,8.60
2023-08-17T20:25:57.566Z,9.80
2023-08-17T20:28:24.610Z,9.30
2023-08-17T20:31:00.910Z,10.00
2023-08-17T20:33:28.057Z,10.00
2023-08-17T20:35:55.982Z,9.80
2023-08-17T20:38:24.096Z,9.50
2023-08-17T20:40:51.736Z,10.10
2023-08-17T20:43:19.288Z,9.40
2023-08-17T20:45:46.472Z,10.30
2023-08-17T20:48:13.298Z,9.60
2023-08-17T20:50:41.424Z,10.50
2023-08-17T20:53:09.055Z,9.60
2023-08-17T20:55:40.120Z,10.30
2023-08-17T20:58:07.574Z,11.10
2023-08-17T21:00:36.804Z,11.00
2023-08-17T21:05:31.345Z,11.20
2023-08-17T21:07:58.352Z,11.00
2023-08-17T21:10:25.396Z,11.20
2023-08-17T21:12:52.172Z,10.60
2023-08-17T21:15:18.715Z,10.00
2023-08-17T21:17:46.519Z,9.50
2023-08-17T21:20:13.816Z,9.60
2023-08-17T21:22:47.138Z,9.10
2023-08-17T21:25:13.637Z,9.90
2023-08-17T21:27:40.272Z,10.20
2023-08-17T21:30:07.983Z,9.70
2023-08-17T21:32:34.688Z,10.20
2023-08-17T21:35:01.220Z,9.60
2023-08-17T21:37:29.507Z,11.50
2023-08-17T21:39:56.445Z,10.60
2023-08-17T21:42:23.103Z,10.60
2023-08-17T21:44:50.842Z,10.90
2023-08-17T21:47:17.523Z,11.00
2023-08-17T21:49:47.965Z,10.70
2023-08-17T21:52:16.588Z,10.80
2023-08-17T21:54:43.186Z,11.90
2023-08-17T21:57:09.850Z,11.70
2023-08-17T21:59:36.349Z,12.10
2023-08-17T22:02:03.992Z,11.70
2023-08-17T22:04:33.438Z,10.50
2023-08-17T22:07:03.027Z,11.00
2023-08-17T22:09:30.737Z,11.00
2023-08-17T22:11:57.199Z,10.90
2023-08-17T22:14:23.746Z,10.20
2023-08-17T22:16:50.468Z,10.80
2023-08-17T22:19:17.279Z,9.70
2023-08-17T22:21:43.781Z,9.90
2023-08-17T22:24:10.230Z,10.60
2023-08-17T22:26:36.718Z,13.00
2023-08-17T22:29:04.482Z,12.00
2023-08-17T22:31:32.273Z,10.70
2023-08-17T22:33:58.685Z,11.00
2023-08-17T22:36:25.271Z,10.20
2023-08-17T22:38:51.766Z,11.10
2023-08-17T22:41:18.188Z,10.10
2023-08-17T22:43:44.854Z,9.70
2023-08-17T22:46:11.428Z,10.70
2023-08-17T22:48:38.027Z,10.00
2023-08-17T22:51:04.527Z,9.90
2023-08-17T22:53:30.924Z,10.10
2023-08-17T22:55:57.352Z,10.60
2023-08-17T22:58:23.807Z,10.10
2023-08-17T23:00:50.353Z,9.90
2023-08-17T23:03:17.397Z,10.60
2023-08-17T23:05:44.692Z,9.90
2023-08-17T23:08:11.182Z,10.50
2023-08-17T23:10:37.933Z,10.90
2023-08-17T23:13:04.727Z,12.00
2023-08-17T23:15:31.135Z,11.40
2023-08-17T23:17:57.751Z,11.50
2023-08-17T23:20:24.334Z,11.70
2023-08-17T23:22:50.746Z,11.60
2023-08-17T23:25:17.282Z,11.40
2023-08-17T23:27:47.943Z,11.70
2023-08-17T23:30:14.434Z,11.80
2023-08-17T23:32:40.852Z,10.80
2023-08-17T23:35:08.301Z,11.60
2023-08-17T23:37:34.717Z,12.20
2023-08-17T23:40:07.184Z,12.10
2023-08-17T23:42:33.696Z,11.70
2023-08-17T23:45:00.152Z,10.90
2023-08-17T23:47:26.893Z,10.60
2023-08-17T23:49:53.975Z,10.10
2023-08-17T23:52:20.408Z,9.40
2023-08-17T23:54:46.809Z,8.50
2023-08-17T23:57:13.283Z,6.70
2023-08-17T23:59:39.673Z,6.30
